Time;durP1;ratioP1;P1;durP2;ratioP2;P2;SDS_P1;SDS_P2;PMS_P1;PMS_P2;Temp;Humidity;BMP_temperature;BMP_pressure;BME280_temperature;BME280_humidity;BME280_pressure;Samples;Min_cycle;Max_cycle;Signal;HPM_P1;HPM_P2
2022/09/24 00:01:37;;;;;;;7.10;5.90;;;;;;;10.49;90.17;99336.66;1731027;81;21061;-78
2022/09/24 00:04:08;;;;;;;6.65;5.00;;;;;;;10.41;90.25;99330.42;1725634;81;21217;-78
2022/09/24 00:06:44;;;;;;;5.55;5.05;;;;;;;10.46;90.35;99330.39;1725460;81;21159;-77
2022/09/24 00:09:12;;;;;;;6.75;6.05;;;;;;;10.55;89.84;99330.66;1728529;81;21086;-77
2022/09/24 00:11:39;;;;;;;6.45;5.85;;;;;;;10.52;89.64;99328.34;1762564;81;21038;-77
2022/09/24 00:14:06;;;;;;;7.42;6.22;;;;;;;10.43;89.58;99327.08;1730652;81;21116;-78
2022/09/24 00:16:33;;;;;;;6.00;5.30;;;;;;;10.36;89.90;99330.11;1746940;81;21314;-75
2022/09/24 00:19:00;;;;;;;5.58;5.08;;;;;;;10.41;89.79;99327.77;1729569;81;21039;-74
2022/09/24 00:21:29;;;;;;;6.05;5.45;;;;;;;10.49;89.44;99325.55;1734193;81;21046;-73
2022/09/24 00:24:02;;;;;;;6.55;5.95;;;;;;;10.45;89.37;99323.41;1762796;81;21115;-74
2022/09/24 00:29:20;;;;;;;5.87;5.30;;;;;;;10.39;89.66;99321.80;1747556;81;21159;-76
2022/09/24 00:31:48;;;;;;;6.05;5.45;;;;;;;10.42;89.26;99324.59;1747955;81;21004;-75
2022/09/24 00:34:14;;;;;;;6.33;5.42;;;;;;;10.49;89.10;99323.37;1711874;81;21113;-73
2022/09/24 00:36:41;;;;;;;5.90;5.40;;;;;;;10.45;88.92;99320.75;1767488;81;21168;-74
2022/09/24 00:39:10;;;;;;;6.58;5.72;;;;;;;10.35;88.84;99317.86;1708553;81;21071;-74
2022/09/24 00:41:38;;;;;;;6.42;5.30;;;;;;;10.28;89.40;99316.88;1747313;81;21367;-75
2022/09/24 00:44:45;;;;;;;5.87;4.45;;;;;;;10.30;89.03;99315.37;1728343;83;21820;-75
2022/09/24 00:47:33;;;;;;;5.83;5.08;;;;;;;10.35;88.98;99317.86;1725287;81;21046;-76
2022/09/24 00:50:17;;;;;;;5.85;5.15;;;;;;;10.31;89.12;99318.37;1728055;81;21124;-76
2022/09/24 00:52:52;;;;;;;5.10;4.60;;;;;;;10.24;88.98;99312.41;1722412;81;21040;-75
2022/09/24 00:55:18;;;;;;;4.97;4.50;;;;;;;10.16;89.17;99312.47;1715040;81;21120;-75
2022/09/24 00:57:45;;;;;;;6.95;4.62;;;;;;;10.18;88.89;99306.48;1701634;82;21093;-74
2022/09/24 01:00:13;;;;;;;5.50;5.00;;;;;;;10.09;88.96;99310.70;1727455;81;22372;-75
2022/09/24 01:02:42;;;;;;;5.70;4.60;;;;;;;9.95;89.64;99310.95;1753972;81;21584;-76
2022/09/24 01:05:09;;;;;;;4.97;4.37;;;;;;;9.89;89.94;99312.95;1747063;81;21041;-76
2022/09/24 01:07:35;;;;;;;4.97;4.45;;;;;;;9.93;90.23;99315.58;1732609;82;21776;-75
2022/09/24 01:10:03;;;;;;;6.12;5.45;;;;;;;10.03;90.13;99306.91;1750893;81;21770;-73
2022/09/24 01:12:44;;;;;;;6.33;4.92;;;;;;;9.99;90.16;99308.27;1765529;81;21043;-76
2022/09/24 01:15:34;;;;;;;6.03;5.47;;;;;;;9.97;90.19;99309.77;1759124;81;21558;-75
2022/09/24 01:18:12;;;;;;;4.83;4.33;;;;;;;9.95;90.34;99309.11;1718435;83;21018;-73
2022/09/24 01:20:57;;;;;;;6.10;4.75;;;;;;;9.99;90.08;99306.94;1692176;82;21557;-73
2022/09/24 01:23:49;;;;;;;7.33;5.00;;;;;;;10.07;90.01;99300.25;1643961;87;21096;-75
2022/09/24 01:26:48;;;;;;;6.12;4.90;;;;;;;10.03;90.21;99305.08;1684538;83;21671;-75
2022/09/24 01:29:40;;;;;;;5.40;4.50;;;;;;;9.95;90.18;99304.31;1684448;83;21148;-74
2022/09/24 01:32:19;;;;;;;6.47;5.17;;;;;;;9.93;90.13;99300.50;1694229;83;21033;-74
2022/09/24 01:35:00;;;;;;;8.00;5.33;;;;;;;9.94;90.11;99301.32;1692116;83;21552;-75
2022/09/24 01:37:27;;;;;;;6.97;5.60;;;;;;;9.82;90.48;99299.56;1681975;83;21093;-75
2022/09/24 01:39:55;;;;;;;5.28;4.62;;;;;;;9.76;90.89;99305.57;1668633;84;21069;-75
2022/09/24 01:42:22;;;;;;;6.10;4.47;;;;;;;9.79;90.89;99309.19;1703368;84;21092;-76
2022/09/24 01:44:49;;;;;;;6.47;5.87;;;;;;;9.85;90.83;99305.86;1703826;82;21571;-76
2022/09/24 01:47:20;;;;;;;6.12;5.55;;;;;;;9.81;90.85;99305.38;1704018;84;21255;-74
2022/09/24 01:49:46;;;;;;;6.28;4.62;;;;;;;9.76;91.09;99305.06;1717181;82;21520;-77
2022/09/24 01:52:15;;;;;;;5.78;5.28;;;;;;;9.83;90.90;99301.20;1712794;82;21081;-77
2022/09/24 01:54:49;;;;;;;6.33;5.67;;;;;;;9.91;90.50;99293.70;1706751;82;21045;-75
2022/09/24 01:57:29;;;;;;;6.12;5.53;;;;;;;9.89;90.54;99299.20;1712319;82;21021;-75
2022/09/24 02:00:05;;;;;;;7.22;5.80;;;;;;;9.85;90.81;99303.20;1719872;82;21275;-76
2022/09/24 02:02:48;;;;;;;6.85;4.95;;;;;;;9.83;90.47;99302.53;1703289;82;21084;-78
2022/09/24 02:05:23;;;;;;;8.18;6.10;;;;;;;9.93;90.33;99299.66;1714865;82;21038;-78
2022/09/24 02:07:57;;;;;;;7.42;6.05;;;;;;;9.94;90.26;99296.83;1707339;82;21132;-76
2022/09/24 02:10:25;;;;;;;6.08;5.58;;;;;;;9.91;90.31;99302.51;1677599;85;21064;-72
2022/09/24 02:12:57;;;;;;;6.75;5.50;;;;;;;9.84;90.12;99309.50;1706585;82;21543;-74
2022/09/24 02:15:33;;;;;;;5.80;5.10;;;;;;;9.83;90.27;99306.50;1701904;82;21076;-75
2022/09/24 02:18:05;;;;;;;5.67;5.17;;;;;;;9.90;90.10;99306.15;1695474;82;21061;-75
2022/09/24 02:20:31;;;;;;;6.17;5.45;;;;;;;9.87;90.21;99309.64;1689620;83;21136;-74
2022/09/24 02:22:58;;;;;;;6.92;6.20;;;;;;;9.80;90.39;99308.20;1686114;83;21066;-76
2022/09/24 02:25:36;;;;;;;5.87;5.20;;;;;;;9.76;90.43;99317.00;1686840;84;21236;-76
2022/09/24 02:28:03;;;;;;;5.67;5.17;;;;;;;9.80;90.26;99312.18;1667949;85;21022;-75
2022/09/24 02:30:32;;;;;;;6.35;5.75;;;;;;;9.89;90.12;99312.95;1660842;83;21617;-75
2022/09/24 02:33:00;;;;;;;6.40;5.80;;;;;;;9.87;90.36;99317.13;1673008;83;21054;-74
2022/09/24 02:35:26;;;;;;;6.53;5.92;;;;;;;9.87;90.52;99315.80;1687486;83;21070;-76
2022/09/24 02:37:53;;;;;;;5.12;4.62;;;;;;;9.87;90.37;99318.45;1694922;83;21175;-73
2022/09/24 02:40:20;;;;;;;6.10;5.40;;;;;;;9.91;89.92;99314.92;1697053;84;21069;-73
2022/09/24 02:42:48;;;;;;;7.12;5.42;;;;;;;9.98;89.69;99318.03;1695218;83;21078;-74
2022/09/24 02:45:16;;;;;;;8.35;5.42;;;;;;;9.98;89.85;99319.87;1678584;83;21326;-74
2022/09/24 02:47:42;;;;;;;8.38;6.10;;;;;;;9.94;89.52;99326.02;1679242;83;21540;-75
2022/09/24 02:50:09;;;;;;;5.45;4.95;;;;;;;9.83;89.82;99322.42;1673971;83;21626;-74
2022/09/24 02:52:35;;;;;;;6.70;5.45;;;;;;;9.85;89.75;99325.77;1683133;83;21073;-75
2022/09/24 02:55:02;;;;;;;6.05;5.55;;;;;;;9.89;89.54;99323.56;1688096;83;21214;-75
2022/09/24 02:57:29;;;;;;;6.05;5.55;;;;;;;9.84;89.87;99324.09;1684880;83;21007;-77
2022/09/24 02:59:56;;;;;;;7.28;6.37;;;;;;;9.78;89.96;99328.27;1674945;83;21101;-77
2022/09/24 03:02:22;;;;;;;5.87;4.37;;;;;;;9.72;90.20;99322.33;1683625;83;21158;-74
2022/09/24 03:04:50;;;;;;;5.72;4.95;;;;;;;9.74;90.17;99329.61;1689554;83;21052;-76
2022/09/24 03:07:20;;;;;;;5.87;5.28;;;;;;;9.83;89.80;99323.27;1668469;83;21078;-75
2022/09/24 03:09:47;;;;;;;5.42;4.92;;;;;;;9.76;89.98;99328.12;1683857;85;21034;-76
2022/09/24 03:12:14;;;;;;;6.50;5.50;;;;;;;9.72;90.35;99332.12;1696982;83;21054;-73
2022/09/24 03:14:40;;;;;;;4.72;4.33;;;;;;;9.73;90.29;99334.58;1688876;83;21188;-74
2022/09/24 03:17:07;;;;;;;8.18;5.62;;;;;;;9.79;90.11;99328.60;1676340;83;21082;-76
2022/09/24 03:19:35;;;;;;;6.60;4.62;;;;;;;9.86;89.86;99327.40;1691574;84;21080;-75
2022/09/24 03:22:02;;;;;;;5.72;5.10;;;;;;;9.80;90.02;99326.27;1692181;83;21037;-77
2022/09/24 03:24:29;;;;;;;5.83;5.33;;;;;;;9.77;90.28;99325.30;1698509;83;21482;-77
2022/09/24 03:26:56;;;;;;;6.33;5.15;;;;;;;9.71;90.33;99330.45;1707776;83;21122;-76
2022/09/24 03:30:58;;;;;;;5.37;4.97;;;;;;;9.73;90.25;99324.47;1709422;83;21018;-76
2022/09/24 03:31:53;;;;;;;7.78;4.90;;;;;;;9.81;90.00;99325.28;1698353;83;21500;-75
2022/09/24 03:34:19;;;;;;;6.95;5.47;;;;;;;9.76;90.09;99320.98;1701263;83;21045;-74
2022/09/24 03:36:49;;;;;;;6.70;6.00;;;;;;;9.77;90.04;99329.28;1672322;83;21120;-74
2022/09/24 03:39:14;;;;;;;5.58;4.85;;;;;;;9.69;89.98;99330.62;1667472;83;21817;-76
2022/09/24 03:41:41;;;;;;;5.35;4.67;;;;;;;9.74;90.10;99326.14;1705920;82;21058;-73
2022/09/24 03:44:07;;;;;;;5.28;4.78;;;;;;;9.82;89.93;99324.77;1667641;84;20998;-76
2022/09/24 03:46:37;;;;;;;6.65;5.17;;;;;;;9.81;90.08;99329.25;1694450;83;21093;-76
2022/09/24 03:49:02;;;;;;;5.10;4.60;;;;;;;9.79;90.32;99330.41;1681928;83;21063;-76
2022/09/24 03:51:28;;;;;;;5.08;4.58;;;;;;;9.79;90.21;99331.73;1700055;83;21094;-75
2022/09/24 03:53:55;;;;;;;4.87;4.37;;;;;;;9.78;89.67;99328.77;1694310;83;21366;-76
2022/09/24 03:56:21;;;;;;;6.33;4.58;;;;;;;9.81;89.85;99332.38;1693940;83;21064;-74
2022/09/24 03:58:49;;;;;;;5.75;5.15;;;;;;;9.81;89.85;99332.38;1700294;83;21050;-76
2022/09/24 04:01:19;;;;;;;5.83;5.22;;;;;;;9.77;89.83;99334.59;1698717;83;21109;-74
2022/09/24 04:03:47;;;;;;;5.33;4.83;;;;;;;9.72;89.96;99333.45;1698829;83;21238;-74
2022/09/24 04:06:14;;;;;;;5.33;4.65;;;;;;;9.73;89.80;99329.27;1696847;83;21049;-73
2022/09/24 04:08:44;;;;;;;5.55;5.05;;;;;;;9.80;89.69;99333.40;1699872;83;21046;-74
2022/09/24 04:11:10;;;;;;;6.15;5.55;;;;;;;9.78;89.68;99331.42;1715032;82;21062;-74
2022/09/24 04:13:37;;;;;;;6.22;5.50;;;;;;;9.71;89.90;99330.45;1699428;82;21061;-73
2022/09/24 04:16:04;;;;;;;5.60;4.87;;;;;;;9.62;90.12;99326.52;1700237;84;21269;-75
2022/09/24 04:18:31;;;;;;;6.92;5.03;;;;;;;9.65;90.05;99328.80;1699552;82;21021;-76
2022/09/24 04:20:59;;;;;;;4.60;4.20;;;;;;;9.71;89.77;99330.45;1701212;84;21018;-74
2022/09/24 04:23:27;;;;;;;5.33;4.83;;;;;;;9.62;89.96;99325.19;1700224;82;21096;-75
2022/09/24 04:25:53;;;;;;;6.08;5.47;;;;;;;9.55;90.34;99329.52;1701511;84;21069;-76
2022/09/24 04:28:20;;;;;;;5.62;4.90;;;;;;;9.50;90.60;99329.70;1688131;84;21154;-75
2022/09/24 04:30:48;;;;;;;4.53;4.12;;;;;;;9.53;90.58;99332.02;1709087;82;21073;-73
2022/09/24 04:33:15;;;;;;;6.15;4.70;;;;;;;9.61;90.35;99331.48;1708174;82;21041;-73
2022/09/24 04:35:44;;;;;;;6.03;4.92;;;;;;;9.60;90.54;99335.63;1708756;82;21103;-77
2022/09/24 04:38:14;;;;;;;6.15;5.37;;;;;;;9.53;90.64;99338.14;1709761;82;21052;-74
2022/09/24 04:40:40;;;;;;;4.85;4.42;;;;;;;9.47;90.87;99337.51;1709013;82;21281;-75
2022/09/24 04:43:09;;;;;;;5.45;4.90;;;;;;;9.51;90.63;99344.63;1702149;82;21057;-76
2022/09/24 04:45:39;;;;;;;6.60;5.05;;;;;;;9.59;90.63;99348.06;1663363;84;21053;-77
2022/09/24 04:48:05;;;;;;;5.37;4.87;;;;;;;9.61;90.82;99345.25;1690354;83;21152;-77
2022/09/24 04:50:32;;;;;;;6.40;5.15;;;;;;;9.60;90.90;99349.73;1722643;81;21528;-76
2022/09/24 04:52:58;;;;;;;5.25;4.72;;;;;;;9.64;91.08;99348.39;1683384;82;21183;-77
2022/09/24 04:55:26;;;;;;;5.90;5.08;;;;;;;9.74;90.59;99350.83;1721527;82;21492;-79
2022/09/24 04:57:57;;;;;;;8.15;5.40;;;;;;;9.89;90.15;99348.77;1697445;82;21045;-77
2022/09/24 05:00:23;;;;;;;7.67;5.28;;;;;;;9.85;89.90;99341.67;1687470;83;20971;-76
2022/09/24 05:02:58;;;;;;;5.08;4.62;;;;;;;9.77;89.88;99348.33;1679047;83;21077;-75
2022/09/24 05:05:25;;;;;;;5.50;4.87;;;;;;;9.67;89.96;99338.43;1722857;83;21164;-76
2022/09/24 05:07:51;;;;;;;5.55;4.95;;;;;;;9.71;90.10;99347.69;1715317;82;21049;-78
2022/09/24 05:10:18;;;;;;;5.05;4.55;;;;;;;9.74;90.09;99341.55;1711342;81;21068;-77
2022/09/24 05:12:46;;;;;;;5.15;4.37;;;;;;;9.70;90.06;99342.08;1693823;84;21160;-76
2022/09/24 05:15:13;;;;;;;6.28;4.87;;;;;;;9.59;90.25;99345.41;1674089;84;21549;-75
2022/09/24 05:17:41;;;;;;;3.92;3.62;;;;;;;9.63;90.63;99341.41;1670017;84;21237;-74
2022/09/24 05:20:10;;;;;;;4.78;4.22;;;;;;;9.77;90.28;99343.02;1665501;84;21128;-76
2022/09/24 05:22:48;;;;;;;4.45;4.05;;;;;;;9.74;90.40;99340.73;1675637;84;21561;-75
2022/09/24 05:25:16;;;;;;;5.50;4.15;;;;;;;9.73;90.54;99348.34;1673010;84;21094;-73
2022/09/24 05:27:54;;;;;;;4.50;4.10;;;;;;;9.71;90.43;99351.16;1670215;83;21118;-75
2022/09/24 05:30:22;;;;;;;3.95;3.60;;;;;;;9.78;90.12;99350.81;1674825;84;21127;-75
2022/09/24 05:32:51;;;;;;;4.75;4.35;;;;;;;9.88;89.89;99355.91;1671442;84;21625;-75
2022/09/24 05:35:19;;;;;;;5.97;4.28;;;;;;;9.90;89.99;99352.58;1673260;85;21548;-74
2022/09/24 05:37:47;;;;;;;5.42;4.22;;;;;;;9.90;90.05;99354.41;1675021;85;21088;-75
2022/09/24 05:43:03;;;;;;;5.53;3.60;;;;;;;10.02;89.47;99355.67;1674365;85;21088;-76
2022/09/24 05:45:32;;;;;;;4.28;3.87;;;;;;;10.07;89.23;99358.64;1673043;84;21498;-76
2022/09/24 05:47:58;;;;;;;6.85;4.20;;;;;;;10.07;89.61;99354.66;1674920;85;21097;-77
2022/09/24 05:50:26;;;;;;;4.58;4.10;;;;;;;10.10;89.35;99352.14;1669940;84;21544;-75
2022/09/24 05:52:52;;;;;;;4.62;4.22;;;;;;;10.19;89.30;99349.27;1657944;85;21633;-77
2022/09/24 05:55:19;;;;;;;5.55;4.10;;;;;;;10.37;88.64;99353.50;1666691;85;21213;-76
2022/09/24 05:57:45;;;;;;;4.92;4.35;;;;;;;10.42;88.78;99346.66;1677330;83;21079;-75
2022/09/24 06:00:12;;;;;;;4.85;4.33;;;;;;;10.45;88.20;99351.30;1675779;85;21392;-78
2022/09/24 06:02:38;;;;;;;4.35;3.90;;;;;;;10.40;88.22;99340.70;1676192;85;21034;-80
2022/09/24 06:05:07;;;;;;;5.00;4.05;;;;;;;10.51;87.72;99349.28;1677223;85;21255;-83
2022/09/24 06:07:34;;;;;;;4.53;4.12;;;;;;;10.61;87.34;99350.68;1668941;85;21806;-84
2022/09/24 06:10:06;;;;;;;6.15;4.35;;;;;;;10.60;87.38;99353.03;1687160;84;21026;-83
2022/09/24 06:12:37;;;;;;;5.33;4.00;;;;;;;10.61;87.20;99355.98;1702760;84;21042;-84
2022/09/24 06:15:05;;;;;;;4.60;4.10;;;;;;;10.60;87.14;99353.50;1701334;83;21061;-81
2022/09/24 06:17:35;;;;;;;8.80;4.55;;;;;;;10.68;87.15;99357.45;1696850;84;21081;-83
2022/09/24 06:20:04;;;;;;;4.17;3.75;;;;;;;10.80;86.34;99358.67;1697163;84;21017;-83
2022/09/24 06:22:31;;;;;;;5.78;4.20;;;;;;;10.80;86.10;99359.18;1700219;82;21522;-83
2022/09/24 06:24:59;;;;;;;5.47;4.08;;;;;;;10.79;86.34;99369.47;1706325;84;21030;-83
2022/09/24 06:27:25;;;;;;;5.20;3.90;;;;;;;10.76;85.59;99364.02;1683857;84;21061;-82
2022/09/24 06:29:56;;;;;;;4.83;4.08;;;;;;;10.77;85.55;99369.64;1708662;82;21090;-83
2022/09/24 06:32:24;;;;;;;4.62;4.22;;;;;;;10.85;85.40;99362.62;1671281;84;22219;-82
2022/09/24 06:34:52;;;;;;;6.70;4.37;;;;;;;10.87;85.42;99367.25;1709888;83;21056;-83
2022/09/24 06:37:23;;;;;;;4.42;4.03;;;;;;;10.90;85.48;99370.89;1704104;84;21085;-83
2022/09/24 06:39:48;;;;;;;8.85;3.60;;;;;;;10.94;85.21;99378.31;1668452;84;21058;-83
2022/09/24 06:42:15;;;;;;;8.23;4.33;;;;;;;11.12;85.02;99376.65;1710262;82;21482;-84
2022/09/24 06:44:42;;;;;;;4.15;3.75;;;;;;;11.27;84.60;99379.34;1702790;82;21248;-87
2022/09/24 06:47:09;;;;;;;5.12;3.87;;;;;;;11.33;84.14;99375.95;1711005;84;21019;-83
2022/09/24 06:49:39;;;;;;;4.15;3.85;;;;;;;11.37;83.77;99381.73;1701554;81;21037;-83
2022/09/24 06:52:06;;;;;;;5.30;3.40;;;;;;;11.44;83.70;99380.52;1704976;84;21082;-79
2022/09/24 06:54:33;;;;;;;4.47;3.30;;;;;;;11.63;83.29;99381.78;1700338;82;21062;-83
2022/09/24 06:57:03;;;;;;;4.72;4.20;;;;;;;11.85;81.92;99386.70;1697991;84;21540;-84
2022/09/24 07:00:18;;;;;;;;;;;;;;;;;;;;;
2022/09/24 07:03:00;;;;;;;7.15;3.62;;;;;;;11.91;81.78;99390.80;1637576;85;21055;-84
2022/09/24 07:05:26;;;;;;;5.92;4.87;;;;;;;11.90;80.85;99387.83;1706298;82;21002;-82
2022/09/24 07:07:53;;;;;;;4.40;3.98;;;;;;;11.83;80.77;99391.39;1664844;84;21065;-81
2022/09/24 07:10:24;;;;;;;4.03;3.62;;;;;;;11.87;80.70;99396.66;1698178;83;21555;-84
2022/09/24 07:12:52;;;;;;;7.95;4.20;;;;;;;11.91;80.50;99392.13;1699800;84;21013;-85
2022/09/24 07:15:19;;;;;;;4.20;3.75;;;;;;;11.81;80.14;99397.70;1697968;84;21037;-82
2022/09/24 07:17:57;;;;;;;4.72;3.95;;;;;;;11.75;80.33;99397.11;1693127;82;20978;-82
2022/09/24 07:20:27;;;;;;;5.15;3.77;;;;;;;11.72;79.83;99401.46;1699999;84;21046;-84
2022/09/24 07:22:56;;;;;;;4.35;3.72;;;;;;;11.66;79.30;99405.38;1705858;84;21175;-84
2022/09/24 07:25:26;;;;;;;5.78;4.20;;;;;;;11.69;79.49;99405.84;1699413;84;21513;-87
2022/09/24 07:27:54;;;;;;;4.40;3.47;;;;;;;11.76;79.81;99404.11;1697478;84;21077;-86
2022/09/24 07:30:20;;;;;;;4.08;3.67;;;;;;;11.81;80.04;99404.88;1705198;81;21121;-85
2022/09/24 07:32:54;;;;;;;7.45;3.87;;;;;;;11.88;79.45;99406.27;1704293;84;21085;-85
2022/09/24 07:35:26;;;;;;;4.50;4.10;;;;;;;11.94;79.80;99403.75;1710408;84;21153;-82
2022/09/24 07:37:58;;;;;;;4.47;3.37;;;;;;;12.04;80.50;99399.47;1710731;84;21045;-87
2022/09/24 07:40:29;;;;;;;5.35;3.55;;;;;;;12.24;79.81;99406.35;1704769;83;21065;-87
2022/09/24 07:42:59;;;;;;;3.65;3.20;;;;;;;12.47;78.17;99405.38;1700223;81;21046;-83
2022/09/24 07:45:30;;;;;;;4.45;3.45;;;;;;;12.46;76.87;99405.90;1700463;81;21015;-80
2022/09/24 07:48:02;;;;;;;3.77;3.47;;;;;;;12.43;77.54;99408.11;1697598;84;21123;-80
2022/09/24 07:50:32;;;;;;;5.12;3.33;;;;;;;12.47;77.17;99413.38;1702453;84;21081;-81
2022/09/24 07:52:59;;;;;;;3.62;3.33;;;;;;;12.53;77.30;99413.95;1696403;84;21050;-82
2022/09/24 07:55:26;;;;;;;4.78;3.62;;;;;;;12.54;76.61;99412.95;1673983;83;21144;-82
2022/09/24 07:57:54;;;;;;;5.00;3.60;;;;;;;12.65;76.71;99407.13;1696001;84;21034;-83
2022/09/24 08:00:21;;;;;;;3.30;2.95;;;;;;;12.80;76.13;99407.05;1696574;84;21217;-81
2022/09/24 08:02:52;;;;;;;4.58;3.77;;;;;;;12.86;74.90;99403.61;1695863;84;21117;-82
2022/09/24 08:05:18;;;;;;;5.35;3.22;;;;;;;12.88;74.87;99418.09;1701145;82;21574;-84
2022/09/24 08:07:54;;;;;;;4.20;3.47;;;;;;;12.86;74.21;99416.94;1698466;84;21548;-82
2022/09/24 08:10:25;;;;;;;4.85;3.33;;;;;;;12.74;74.34;99412.63;1709699;83;21028;-83
2022/09/24 08:12:56;;;;;;;4.03;3.62;;;;;;;12.72;74.57;99414.66;1705942;84;22012;-84
2022/09/24 08:15:25;;;;;;;3.25;2.95;;;;;;;12.77;75.89;99414.11;1705625;84;20986;-82
2022/09/24 08:17:52;;;;;;;3.77;3.33;;;;;;;12.97;75.06;99416.95;1699975;82;21052;-82
2022/09/24 08:20:20;;;;;;;3.30;3.00;;;;;;;13.24;74.54;99425.18;1701337;84;21061;-83
2022/09/24 08:22:48;;;;;;;4.80;3.45;;;;;;;13.32;72.53;99423.20;1642582;85;21030;-83
2022/09/24 08:25:16;;;;;;;4.05;3.60;;;;;;;13.33;73.26;99419.54;1692840;84;21136;-82
2022/09/24 08:27:46;;;;;;;4.20;3.80;;;;;;;13.39;73.52;99424.61;1717743;82;21004;-82
2022/09/24 08:30:13;;;;;;;3.47;3.10;;;;;;;13.44;72.76;99418.68;1714420;82;21118;-85
2022/09/24 08:32:39;;;;;;;3.98;3.05;;;;;;;13.44;72.75;99420.83;1703659;84;21086;-82
2022/09/24 08:35:07;;;;;;;4.15;2.70;;;;;;;13.53;72.29;99424.19;1699330;84;21087;-84
2022/09/24 08:37:38;;;;;;;3.10;2.90;;;;;;;13.55;71.39;99426.97;1707748;81;22462;-82
2022/09/24 08:40:08;;;;;;;3.42;3.12;;;;;;;13.54;70.21;99425.34;1712630;81;20947;-83
2022/09/24 08:43:05;;;;;;;2.80;2.60;;;;;;;13.49;70.83;99421.59;1689658;84;21026;-83
2022/09/24 08:48:24;;;;;;;2.83;2.50;;;;;;;13.83;70.58;99429.29;1712542;84;21011;-83
2022/09/24 08:50:56;;;;;;;3.30;2.98;;;;;;;14.05;69.39;99429.52;1706333;83;21518;-82
2022/09/24 08:54:04;;;;;;;4.05;3.05;;;;;;;14.09;69.35;99429.43;1717836;82;20997;-84
2022/09/24 08:56:34;;;;;;;3.30;3.00;;;;;;;14.15;69.41;99426.48;1709165;84;21062;-84
2022/09/24 08:59:22;;;;;;;3.00;2.80;;;;;;;14.22;68.23;99426.52;1705314;84;21001;-82
2022/09/24 09:02:17;;;;;;;4.15;2.65;;;;;;;14.21;67.85;99423.52;1673478;84;21534;-84
2022/09/24 09:04:56;;;;;;;3.00;2.70;;;;;;;14.21;68.82;99423.00;1697150;82;21397;-82
2022/09/24 09:07:31;;;;;;;3.47;2.65;;;;;;;14.34;68.48;99421.72;1704386;84;21089;-83
2022/09/24 09:10:05;;;;;;;4.58;3.60;;;;;;;14.52;70.18;99425.16;1703106;83;21030;-83
2022/09/24 09:12:50;;;;;;;3.75;3.35;;;;;;;14.69;68.67;99424.31;1709585;83;21075;-83
2022/09/24 09:15:34;;;;;;;3.60;3.30;;;;;;;14.74;66.63;99421.05;1700806;82;21061;-81
2022/09/24 09:18:19;;;;;;;3.15;2.67;;;;;;;14.65;66.42;99427.08;1651930;84;21168;-82
2022/09/24 09:20:47;;;;;;;3.35;3.05;;;;;;;14.61;67.61;99429.04;1708723;84;21026;-83
2022/09/24 09:23:24;;;;;;;3.83;2.65;;;;;;;14.65;67.09;99423.59;1696347;84;21584;-83
2022/09/24 09:25:55;;;;;;;2.80;2.60;;;;;;;14.98;67.02;99420.15;1699565;82;21308;-83
2022/09/24 09:28:22;;;;;;;2.80;2.60;;;;;;;15.40;66.72;99421.59;1700132;84;21564;-80
2022/09/24 09:31:19;;;;;;;3.37;2.58;;;;;;;15.91;64.55;99418.73;1679339;84;21116;-81
2022/09/24 09:34:34;;;;;;;3.50;3.20;;;;;;;16.13;63.77;99415.27;1699081;82;21092;-82
2022/09/24 09:37:18;;;;;;;3.22;2.95;;;;;;;16.25;63.53;99424.81;1689437;84;21073;-82
2022/09/24 09:40:28;;;;;;;3.17;2.87;;;;;;;16.17;62.50;99418.33;1696486;84;21014;-81
2022/09/24 09:43:02;;;;;;;2.95;2.67;;;;;;;16.18;62.35;99427.50;1708815;84;21054;-83
2022/09/24 09:45:47;;;;;;;2.80;2.60;;;;;;;16.30;60.76;99416.44;1693466;84;22088;-80
2022/09/24 09:48:13;;;;;;;3.45;2.50;;;;;;;16.32;61.30;99418.88;1698717;84;20948;-83
2022/09/24 09:50:47;;;;;;;3.47;2.42;;;;;;;16.57;59.57;99424.31;1695652;83;21051;-80
2022/09/24 09:53:28;;;;;;;3.42;2.92;;;;;;;16.74;59.42;99413.09;1708126;82;21079;-83
2022/09/24 09:56:06;;;;;;;3.05;2.75;;;;;;;17.24;61.37;99405.11;1707076;83;21037;-83
2022/09/24 09:58:43;;;;;;;4.70;2.85;;;;;;;17.82;58.36;99410.11;1682565;84;21754;-82
2022/09/24 10:01:13;;;;;;;3.20;2.95;;;;;;;18.05;56.22;99397.38;1673961;82;21461;-83
2022/09/24 10:03:55;;;;;;;2.83;2.55;;;;;;;18.32;57.75;99397.58;1696705;84;21062;-82
2022/09/24 10:06:28;;;;;;;3.75;3.42;;;;;;;18.85;58.46;99392.29;1694383;82;22015;-80
2022/09/24 10:09:21;;;;;;;3.27;2.92;;;;;;;19.18;54.40;99399.52;1697873;82;21162;-82
2022/09/24 10:11:47;;;;;;;4.62;2.77;;;;;;;19.11;54.11;99398.83;1719868;82;21165;-83
2022/09/24 10:15:33;;;;;;;4.67;3.20;;;;;;;18.69;54.27;99397.47;1786335;79;22300;-81
2022/09/24 10:18:01;;;;;;;4.00;2.83;;;;;;;18.34;55.19;99402.20;1731550;80;21188;-83
2022/09/24 10:20:32;;;;;;;3.33;3.02;;;;;;;18.04;55.78;99405.66;1749325;80;21109;-84
2022/09/24 10:23:03;;;;;;;4.47;2.90;;;;;;;17.67;55.79;99403.78;1744810;82;20922;-84
2022/09/24 10:25:31;;;;;;;3.20;2.87;;;;;;;17.26;57.05;99406.52;1764528;79;20974;-83
2022/09/24 10:31:00;;;;;;;3.15;2.85;;;;;;;16.67;58.16;99415.30;1763708;80;21745;-83
2022/09/24 10:33:39;;;;;;;2.95;2.50;;;;;;;16.29;58.80;99410.75;1766149;80;21066;-83
2022/09/24 10:36:09;;;;;;;2.77;2.58;;;;;;;15.96;59.14;99414.91;1768162;80;21082;-81
2022/09/24 10:38:37;;;;;;;3.60;2.83;;;;;;;15.65;59.66;99408.89;1757771;80;21079;-85
2022/09/24 10:41:27;;;;;;;3.50;2.90;;;;;;;15.43;60.31;99413.16;1760501;80;21172;-81
2022/09/24 10:43:57;;;;;;;3.20;2.90;;;;;;;15.24;60.89;99418.83;1769081;80;21069;-85
2022/09/24 10:46:57;;;;;;;4.28;2.45;;;;;;;15.04;61.63;99417.98;1772258;80;21495;-84
2022/09/24 10:49:50;;;;;;;4.05;2.87;;;;;;;14.97;62.47;99422.50;1743681;82;21026;-85
2022/09/24 10:52:43;;;;;;;3.45;2.77;;;;;;;15.04;62.65;99421.48;1769796;80;21010;-85
2022/09/24 10:55:46;;;;;;;2.60;2.27;;;;;;;15.25;62.42;99417.78;1766571;80;21092;-83
2022/09/24 10:58:24;;;;;;;4.05;2.77;;;;;;;15.69;62.92;99416.29;1746228;80;21574;-83
2022/09/24 11:01:20;;;;;;;2.60;2.40;;;;;;;16.12;61.80;99417.63;1747618;80;21124;-82
2022/09/24 11:04:33;;;;;;;2.80;2.55;;;;;;;16.36;60.78;99414.77;1732032;80;20967;-81
2022/09/24 11:07:14;;;;;;;4.80;2.92;;;;;;;16.57;60.48;99417.61;1715986;83;21057;-81
2022/09/24 11:10:06;;;;;;;2.62;2.12;;;;;;;16.73;59.25;99418.98;1713520;82;21137;-81
2022/09/24 11:12:41;;;;;;;4.08;2.62;;;;;;;16.76;58.06;99423.90;1731136;80;21073;-83
2022/09/24 11:15:24;;;;;;;3.92;2.08;;;;;;;16.67;57.83;99417.98;1696930;83;21014;-84
2022/09/24 11:18:45;;;;;;;2.77;2.40;;;;;;;16.57;57.78;99422.16;1717029;83;21344;-83
2022/09/24 11:21:54;;;;;;;2.00;1.80;;;;;;;16.40;57.87;99411.95;1731760;81;21038;-81
2022/09/24 11:24:37;;;;;;;2.47;2.27;;;;;;;16.25;57.96;99416.77;1698768;82;21046;-81
2022/09/24 11:27:31;;;;;;;2.30;2.10;;;;;;;16.12;57.97;99417.11;1725185;83;21545;-83
2022/09/24 11:30:24;;;;;;;2.47;2.27;;;;;;;16.17;58.32;99423.69;1722176;82;21083;-82
2022/09/24 11:33:37;;;;;;;2.37;2.08;;;;;;;16.34;58.47;99415.98;1721572;82;21073;-81
2022/09/24 11:36:22;;;;;;;3.55;2.60;;;;;;;16.50;58.45;99422.21;1718347;82;21142;-78
2022/09/24 11:39:21;;;;;;;2.45;2.12;;;;;;;16.55;58.06;99415.67;1714960;82;21521;-84
2022/09/24 11:42:08;;;;;;;4.33;2.42;;;;;;;16.45;57.15;99418.00;1711940;83;21023;-80
2022/09/24 11:45:02;;;;;;;2.85;2.30;;;;;;;16.09;57.22;99417.55;1719533;82;21079;-83
2022/09/24 11:47:52;;;;;;;;;;;;;;;15.73;58.12;99419.41;1715118;82;21015;-81
2022/09/24 11:51:15;;;;;;;2.77;2.05;;;;;;;15.49;59.07;99419.02;1702365;82;20424;-82
2022/09/24 11:54:11;;;;;;;3.25;2.33;;;;;;;15.31;59.57;99425.50;1723097;82;21081;-83
2022/09/24 11:56:48;;;;;;;2.00;1.80;;;;;;;15.25;60.30;99429.00;1709234;82;21084;-83
2022/09/24 11:59:57;;;;;;;2.37;1.70;;;;;;;15.25;60.12;99437.03;1707036;82;21112;-83
2022/09/24 12:02:53;;;;;;;1.67;1.57;;;;;;;15.19;59.18;99440.53;1707286;82;21065;-82
2022/09/24 12:05:34;;;;;;;2.95;1.90;;;;;;;15.04;59.15;99450.91;1687053;84;21054;-83
2022/09/24 12:08:17;;;;;;;2.50;2.02;;;;;;;14.82;60.15;99453.46;1717075;82;21291;-82
2022/09/24 12:10:51;;;;;;;1.82;1.67;;;;;;;14.60;62.26;99448.77;1714223;82;20971;-84
2022/09/24 12:13:31;;;;;;;2.15;1.65;;;;;;;14.39;64.08;99447.86;1697109;81;21116;-81
2022/09/24 12:16:12;;;;;;;1.67;1.57;;;;;;;14.33;64.96;99446.81;1711290;82;21283;-83
2022/09/24 12:19:22;;;;;;;1.65;1.50;;;;;;;14.69;66.51;99436.86;1727371;82;21069;-81
2022/09/24 12:21:51;;;;;;;1.52;1.42;;;;;;;15.46;67.25;99436.81;1698064;83;21066;-81
2022/09/24 12:24:29;;;;;;;1.92;1.60;;;;;;;16.90;65.37;99436.23;1706134;83;21046;-80